Time;durP1;ratioP1;P1;durP2;ratioP2;P2;SDS_P1;SDS_P2;PMS_P1;PMS_P2;Temp;Humidity;BMP_temperature;BMP_pressure;BME280_temperature;BME280_humidity;BME280_pressure;Samples;Min_cycle;Max_cycle;Signal;HPM_P1;HPM_P2
2023/07/06 00:01:22;;;;;;;;;;;;;;;;;;5050289;28;20007;-81
2023/07/06 00:03:48;;;;;;;;;;;;;;;;;;5049314;28;19920;-82
2023/07/06 00:06:15;;;;;;;;;;;;;;;;;;5033383;28;19925;-83
2023/07/06 00:08:41;;;;;;;;;;;;;;;;;;5049565;28;20289;-83
2023/07/06 00:11:07;;;;;;;;;;;;;;;;;;5033174;28;19927;-82
2023/07/06 00:13:33;;;;;;;;;;;;;;;;;;5049331;28;20346;-83
2023/07/06 00:16:02;;;;;;;;;;;;;;;;;;5055110;28;20258;-83
2023/07/06 00:18:28;;;;;;;;;;;;;;;;;;5053456;28;20106;-83
2023/07/06 00:20:54;;;;;;;;;;;;;;;;;;5050231;28;20039;-83
2023/07/06 00:23:21;;;;;;;;;;;;;;;;;;5069214;28;19930;-83
2023/07/06 00:25:47;;;;;;;;;;;;;;;;;;5052349;28;19921;-83
2023/07/06 00:28:14;;;;;;;;;;;;;;;;;;5069709;28;19945;-84
2023/07/06 00:33:12;;;;;;;;;;;;;;;;;;5068032;28;20396;-83
2023/07/06 00:35:39;;;;;;;;;;;;;;;;;;5068125;28;19928;-83
2023/07/06 00:38:09;;;;;;;;;;;;;;;;;;5081131;28;19927;-83
2023/07/06 00:40:35;;;;;;;;;;;;;;;;;;5071950;28;20348;-83
2023/07/06 00:43:01;;;;;;;;;;;;;;;;;;5077239;28;19931;-83
2023/07/06 00:45:28;;;;;;;;;;;;;;;;;;5056546;28;19938;-81
2023/07/06 00:47:56;;;;;;;;;;;;;;;;;;5055850;28;20493;-83
2023/07/06 00:50:22;;;;;;;;;;;;;;;;;;5073039;28;19924;-84
2023/07/06 00:52:48;;;;;;;;;;;;;;;;;;5072436;28;20096;-83
2023/07/06 00:55:15;;;;;;;;;;;;;;;;;;5072504;28;20430;-83
2023/07/06 00:57:41;;;;;;;;;;;;;;;;;;5055624;28;20022;-83
2023/07/06 01:00:07;;;;;;;;;;;;;;;;;;5073544;28;20074;-83
2023/07/06 01:02:33;;;;;;;;;;;;;;;;;;5056195;28;19924;-82
2023/07/06 01:04:59;;;;;;;;;;;;;;;;;;5055873;28;19921;-84
2023/07/06 01:07:25;;;;;;;;;;;;;;;;;;5067304;28;19936;-83
2023/07/06 01:09:52;;;;;;;;;;;;;;;;;;5055704;28;19931;-83
2023/07/06 01:12:18;;;;;;;;;;;;;;;;;;5053258;28;19920;-84
2023/07/06 01:14:45;;;;;;;;;;;;;;;;;;5052338;28;20285;-83
2023/07/06 01:17:11;;;;;;;;;;;;;;;;;;5052683;28;20393;-84
2023/07/06 01:19:37;;;;;;;;;;;;;;;;;;5034893;28;19964;-82
2023/07/06 01:22:04;;;;;;;;;;;;;;;;;;5052916;28;19924;-82
2023/07/06 01:24:30;;;;;;;;;;;;;;;;;;5050202;28;19921;-80
2023/07/06 01:26:56;;;;;;;;;;;;;;;;;;5052463;28;20361;-83
2023/07/06 01:29:22;;;;;;;;;;;;;;;;;;5053615;28;19924;-82
2023/07/06 01:31:48;;;;;;;;;;;;;;;;;;5085876;28;20140;-83
2023/07/06 01:34:14;;;;;;;;;;;;;;;;;;5051735;28;19925;-83
2023/07/06 01:36:40;;;;;;;;;;;;;;;;;;5035702;28;19976;-83
2023/07/06 01:39:06;;;;;;;;;;;;;;;;;;5049958;28;19970;-82
2023/07/06 01:41:33;;;;;;;;;;;;;;;;;;5072690;28;19920;-81
2023/07/06 01:43:59;;;;;;;;;;;;;;;;;;5071933;28;19927;-83
2023/07/06 01:46:25;;;;;;;;;;;;;;;;;;5071045;28;19920;-84
2023/07/06 01:48:51;;;;;;;;;;;;;;;;;;5054386;28;19927;-77
2023/07/06 01:51:18;;;;;;;;;;;;;;;;;;5052963;28;19925;-77
2023/07/06 01:53:44;;;;;;;;;;;;;;;;;;5054322;28;20341;-77
2023/07/06 01:56:10;;;;;;;;;;;;;;;;;;5071540;28;19975;-78
2023/07/06 01:58:36;;;;;;;;;;;;;;;;;;5051530;28;20280;-77
2023/07/06 02:01:02;;;;;;;;;;;;;;;;;;5041328;28;19921;-78
2023/07/06 02:03:28;;;;;;;;;;;;;;;;;;5051529;28;19927;-78
2023/07/06 02:05:54;;;;;;;;;;;;;;;;;;5051518;28;19924;-78
2023/07/06 02:08:20;;;;;;;;;;;;;;;;;;5063408;28;19921;-78
2023/07/06 02:10:47;;;;;;;;;;;;;;;;;;5070802;28;19927;-79
2023/07/06 02:13:13;;;;;;;;;;;;;;;;;;5071639;28;20316;-84
2023/07/06 02:15:40;;;;;;;;;;;;;;;;;;5071559;28;19920;-84
2023/07/06 02:18:07;;;;;;;;;;;;;;;;;;5065130;28;20590;-85
2023/07/06 02:20:34;;;;;;;;;;;;;;;;;;5051953;28;19924;-84
2023/07/06 02:23:00;;;;;;;;;;;;;;;;;;5067280;28;20387;-84
2023/07/06 02:25:26;;;;;;;;;;;;;;;;;;5071254;28;19989;-84
2023/07/06 02:27:52;;;;;;;;;;;;;;;;;;5054256;28;19975;-84
2023/07/06 02:30:17;;;;;;;;;;;;;;;;;;5071773;28;19928;-83
2023/07/06 02:32:43;;;;;;;;;;;;;;;;;;5065710;28;20329;-83
2023/07/06 02:35:10;;;;;;;;;;;;;;;;;;5051636;28;19920;-84
2023/07/06 02:37:38;;;;;;;;;;;;;;;;;;5051580;28;19921;-84
2023/07/06 02:40:04;;;;;;;;;;;;;;;;;;5051016;28;19932;-84
2023/07/06 02:42:30;;;;;;;;;;;;;;;;;;5051609;28;19920;-84
2023/07/06 02:44:57;;;;;;;;;;;;;;;;;;5050554;28;19924;-84
2023/07/06 02:47:23;;;;;;;;;;;;;;;;;;5053936;28;19920;-83
2023/07/06 02:49:49;;;;;;;;;;;;;;;;;;5069961;28;19920;-84
2023/07/06 02:52:15;;;;;;;;;;;;;;;;;;5060501;28;20422;-84
2023/07/06 02:54:41;;;;;;;;;;;;;;;;;;5050005;28;19964;-82
2023/07/06 02:57:07;;;;;;;;;;;;;;;;;;5053034;28;19990;-85
2023/07/06 02:59:33;;;;;;;;;;;;;;;;;;5054082;28;19928;-84
2023/07/06 03:01:59;;;;;;;;;;;;;;;;;;5070613;28;19924;-84
2023/07/06 03:04:27;;;;;;;;;;;;;;;;;;5070223;28;19927;-84
2023/07/06 03:06:55;;;;;;;;;;;;;;;;;;5052594;28;19927;-84
2023/07/06 03:09:21;;;;;;;;;;;;;;;;;;5070188;28;20028;-85
2023/07/06 03:11:47;;;;;;;;;;;;;;;;;;5070462;28;20385;-85
2023/07/06 03:14:13;;;;;;;;;;;;;;;;;;5050550;28;19951;-85
2023/07/06 03:16:39;;;;;;;;;;;;;;;;;;5034169;28;19925;-85
2023/07/06 03:19:05;;;;;;;;;;;;;;;;;;5032848;28;19925;-84
2023/07/06 03:21:31;;;;;;;;;;;;;;;;;;5063482;28;19924;-85
2023/07/06 03:23:57;;;;;;;;;;;;;;;;;;5070094;28;19972;-84
2023/07/06 03:26:24;;;;;;;;;;;;;;;;;;5053780;28;20033;-85
2023/07/06 03:28:50;;;;;;;;;;;;;;;;;;5068826;28;19920;-85
2023/07/06 03:31:16;;;;;;;;;;;;;;;;;;5070789;28;20353;-85
2023/07/06 03:33:42;;;;;;;;;;;;;;;;;;5053042;28;20250;-85
2023/07/06 03:36:08;;;;;;;;;;;;;;;;;;5069410;28;20011;-84
2023/07/06 03:38:36;;;;;;;;;;;;;;;;;;5050436;28;19927;-85
2023/07/06 03:41:04;;;;;;;;;;;;;;;;;;5049679;28;19925;-84
2023/07/06 03:43:30;;;;;;;;;;;;;;;;;;5050189;28;19971;-84
2023/07/06 03:45:56;;;;;;;;;;;;;;;;;;5045061;28;19925;-85
2023/07/06 03:48:22;;;;;;;;;;;;;;;;;;5032882;28;20011;-84
2023/07/06 03:50:52;;;;;;;;;;;;;;;;;;5042556;28;19920;-85
2023/07/06 03:53:18;;;;;;;;;;;;;;;;;;5074524;28;19924;-84
2023/07/06 03:55:44;;;;;;;;;;;;;;;;;;5071781;28;19924;-85
2023/07/06 03:58:10;;;;;;;;;;;;;;;;;;5061951;28;19924;-84
2023/07/06 04:00:36;;;;;;;;;;;;;;;;;;5067537;28;20341;-85
2023/07/06 04:03:06;;;;;;;;;;;;;;;;;;5065010;28;19932;-84
2023/07/06 04:05:32;;;;;;;;;;;;;;;;;;5070494;28;19920;-83
2023/07/06 04:07:58;;;;;;;;;;;;;;;;;;5072272;28;20003;-84
2023/07/06 04:10:24;;;;;;;;;;;;;;;;;;5075402;28;19923;-84
2023/07/06 04:12:50;;;;;;;;;;;;;;;;;;5074303;28;19927;-84
2023/07/06 04:15:19;;;;;;;;;;;;;;;;;;5072850;28;19936;-84
2023/07/06 04:17:47;;;;;;;;;;;;;;;;;;5056104;28;19926;-83
2023/07/06 04:20:18;;;;;;;;;;;;;;;;;;5057141;28;19929;-85
2023/07/06 04:22:44;;;;;;;;;;;;;;;;;;5055880;28;19982;-85
2023/07/06 04:25:10;;;;;;;;;;;;;;;;;;5055634;28;19921;-85
2023/07/06 04:27:36;;;;;;;;;;;;;;;;;;5057033;28;20368;-85
2023/07/06 04:30:02;;;;;;;;;;;;;;;;;;5073582;28;20350;-84
2023/07/06 04:32:31;;;;;;;;;;;;;;;;;;5074058;28;20014;-85
2023/07/06 04:34:57;;;;;;;;;;;;;;;;;;5056400;28;19959;-84
2023/07/06 04:37:23;;;;;;;;;;;;;;;;;;5053520;28;19967;-84
2023/07/06 04:39:49;;;;;;;;;;;;;;;;;;5053180;28;20046;-81
2023/07/06 04:42:15;;;;;;;;;;;;;;;;;;5067130;28;20401;-84
2023/07/06 04:44:41;;;;;;;;;;;;;;;;;;5053354;28;19921;-84
2023/07/06 04:47:07;;;;;;;;;;;;;;;;;;5054457;28;19975;-85
2023/07/06 04:49:33;;;;;;;;;;;;;;;;;;5055476;28;19924;-84
2023/07/06 04:52:00;;;;;;;;;;;;;;;;;;5072894;28;19924;-84
2023/07/06 04:54:26;;;;;;;;;;;;;;;;;;5056260;28;20431;-84
2023/07/06 04:56:52;;;;;;;;;;;;;;;;;;5073303;28;19924;-82
2023/07/06 04:59:18;;;;;;;;;;;;;;;;;;5072908;28;19947;-85
2023/07/06 05:01:44;;;;;;;;;;;;;;;;;;5073491;28;19969;-85
2023/07/06 05:04:10;;;;;;;;;;;;;;;;;;5055372;28;19924;-85
2023/07/06 05:06:36;;;;;;;;;;;;;;;;;;5072883;28;19926;-85
2023/07/06 05:09:03;;;;;;;;;;;;;;;;;;5055222;28;20007;-84
2023/07/06 05:11:30;;;;;;;;;;;;;;;;;;5056760;28;19921;-85
2023/07/06 05:13:56;;;;;;;;;;;;;;;;;;5055680;28;19932;-84
2023/07/06 05:16:23;;;;;;;;;;;;;;;;;;5061663;28;19934;-84
2023/07/06 05:18:49;;;;;;;;;;;;;;;;;;5051984;28;19924;-83
2023/07/06 05:21:15;;;;;;;;;;;;;;;;;;5052239;28;20491;-84
2023/07/06 05:23:40;;;;;;;;;;;;;;;;;;5052914;28;20270;-84
2023/07/06 05:26:07;;;;;;;;;;;;;;;;;;5054277;28;19924;-84
2023/07/06 05:28:33;;;;;;;;;;;;;;;;;;5052626;28;19924;-85
2023/07/06 05:31:02;;;;;;;;;;;;;;;;;;5052554;28;20384;-84
2023/07/06 05:33:28;;;;;;;;;;;;;;;;;;5052030;28;19947;-84
2023/07/06 05:35:53;;;;;;;;;;;;;;;;;;5052846;28;19924;-85
2023/07/06 05:38:19;;;;;;;;;;;;;;;;;;5052083;28;19932;-85
2023/07/06 05:40:45;;;;;;;;;;;;;;;;;;5053747;28;19975;-85
2023/07/06 05:43:11;;;;;;;;;;;;;;;;;;5069277;28;20353;-85
2023/07/06 05:45:37;;;;;;;;;;;;;;;;;;5052467;28;19947;-85
2023/07/06 05:48:03;;;;;;;;;;;;;;;;;;5034603;28;19924;-85
2023/07/06 05:50:29;;;;;;;;;;;;;;;;;;5035845;28;19931;-85
2023/07/06 05:52:55;;;;;;;;;;;;;;;;;;5050195;28;19989;-85
2023/07/06 05:55:23;;;;;;;;;;;;;;;;;;5051254;28;20368;-85
2023/07/06 05:57:50;;;;;;;;;;;;;;;;;;5056738;28;19970;-85
2023/07/06 06:00:16;;;;;;;;;;;;;;;;;;5071673;28;19927;-84
2023/07/06 06:02:45;;;;;;;;;;;;;;;;;;5069122;28;19920;-84
2023/07/06 06:05:13;;;;;;;;;;;;;;;;;;5054435;28;19924;-84
2023/07/06 06:07:39;;;;;;;;;;;;;;;;;;5064661;28;19924;-84
2023/07/06 06:10:05;;;;;;;;;;;;;;;;;;5051014;28;19946;-84
2023/07/06 06:12:32;;;;;;;;;;;;;;;;;;5052200;28;19928;-84
2023/07/06 06:14:58;;;;;;;;;;;;;;;;;;5064466;28;19930;-85
2023/07/06 06:17:27;;;;;;;;;;;;;;;;;;5071262;28;19936;-85
2023/07/06 06:19:53;;;;;;;;;;;;;;;;;;5070585;28;19925;-84
2023/07/06 06:22:19;;;;;;;;;;;;;;;;;;5060831;28;19986;-84
2023/07/06 06:24:45;;;;;;;;;;;;;;;;;;5053633;28;19928;-85
2023/07/06 06:27:11;;;;;;;;;;;;;;;;;;5054000;28;19985;-74
2023/07/06 06:29:39;;;;;;;;;;;;;;;;;;5072389;28;19966;-73
2023/07/06 06:32:05;;;;;;;;;;;;;;;;;;5071317;28;19938;-71
2023/07/06 06:34:31;;;;;;;;;;;;;;;;;;5070642;28;19920;-72
2023/07/06 06:36:57;;;;;;;;;;;;;;;;;;5072206;28;20385;-76
2023/07/06 06:39:24;;;;;;;;;;;;;;;;;;5070573;28;20531;-74
2023/07/06 06:41:50;;;;;;;;;;;;;;;;;;5054659;28;19944;-77
2023/07/06 06:44:16;;;;;;;;;;;;;;;;;;5049674;28;20350;-77
2023/07/06 06:46:41;;;;;;;;;;;;;;;;;;5059183;28;19924;-77
2023/07/06 06:49:08;;;;;;;;;;;;;;;;;;5069508;28;20365;-77
2023/07/06 06:51:34;;;;;;;;;;;;;;;;;;5063166;28;19924;-77
2023/07/06 06:54:00;;;;;;;;;;;;;;;;;;5065290;28;19924;-77
2023/07/06 06:56:26;;;;;;;;;;;;;;;;;;5053916;28;19969;-77
2023/07/06 06:58:52;;;;;;;;;;;;;;;;;;5054305;28;20364;-77
2023/07/06 07:01:18;;;;;;;;;;;;;;;;;;5056837;28;19932;-77
2023/07/06 07:03:45;;;;;;;;;;;;;;;;;;5050626;28;19924;-77
2023/07/06 07:06:11;;;;;;;;;;;;;;;;;;5061385;28;19921;-77
2023/07/06 07:08:38;;;;;;;;;;;;;;;;;;5050990;28;19921;-77
2023/07/06 07:11:04;;;;;;;;;;;;;;;;;;5050261;28;19986;-77
2023/07/06 07:13:30;;;;;;;;;;;;;;;;;;5050373;28;19920;-77
2023/07/06 07:15:56;;;;;;;;;;;;;;;;;;5050880;28;19928;-77
2023/07/06 07:18:22;;;;;;;;;;;;;;;;;;5048989;28;20011;-77
2023/07/06 07:20:49;;;;;;;;;;;;;;;;;;5053706;28;19924;-77
2023/07/06 07:23:15;;;;;;;;;;;;;;;;;;5053397;28;19935;-77
2023/07/06 07:25:41;;;;;;;;;;;;;;;;;;5065795;28;19924;-73
2023/07/06 07:28:07;;;;;;;;;;;;;;;;;;5065455;28;20407;-73
2023/07/06 07:30:34;;;;;;;;;;;;;;;;;;5073773;28;20380;-73
2023/07/06 07:33:00;;;;;;;;;;;;;;;;;;5066219;28;19947;-72
2023/07/06 07:35:26;;;;;;;;;;;;;;;;;;5070543;28;19920;-72
2023/07/06 07:37:52;;;;;;;;;;;;;;;;;;5072980;28;19920;-73
2023/07/06 07:40:18;;;;;;;;;;;;;;;;;;5077078;28;19927;-74
2023/07/06 07:42:46;;;;;;;;;;;;;;;;;;5089389;28;19931;-79
2023/07/06 07:45:13;;;;;;;;;;;;;;;;;;5077382;28;19924;-80
2023/07/06 07:47:39;;;;;;;;;;;;;;;;;;5041472;28;20376;-80
2023/07/06 07:50:05;;;;;;;;;;;;;;;;;;5062293;28;19924;-80
2023/07/06 07:52:31;;;;;;;;;;;;;;;;;;5073298;28;19931;-81
2023/07/06 07:54:57;;;;;;;;;;;;;;;;;;5087987;28;19927;-81
2023/07/06 07:57:23;;;;;;;;;;;;;;;;;;5088661;28;20284;-81
2023/07/06 07:59:49;;;;;;;;;;;;;;;;;;5079955;28;19967;-81
2023/07/06 08:02:15;;;;;;;;;;;;;;;;;;5068801;28;19931;-79
2023/07/06 08:04:41;;;;;;;;;;;;;;;;;;5088276;28;19924;-80
2023/07/06 08:07:07;;;;;;;;;;;;;;;;;;5069500;28;19924;-80
2023/07/06 08:09:33;;;;;;;;;;;;;;;;;;5056413;28;20362;-80
2023/07/06 08:11:59;;;;;;;;;;;;;;;;;;5065355;28;20358;-80
2023/07/06 08:14:25;;;;;;;;;;;;;;;;;;5079916;28;19931;-80
2023/07/06 08:16:51;;;;;;;;;;;;;;;;;;5088269;28;19919;-80
2023/07/06 08:19:17;;;;;;;;;;;;;;;;;;5081762;28;19920;-83
2023/07/06 08:21:43;;;;;;;;;;;;;;;;;;5064119;28;19960;-84
2023/07/06 08:24:09;;;;;;;;;;;;;;;;;;5082459;28;20016;-82
2023/07/06 08:26:35;;;;;;;;;;;;;;;;;;5072466;28;19938;-81
2023/07/06 08:29:01;;;;;;;;;;;;;;;;;;5077496;28;20462;-81
2023/07/06 08:31:27;;;;;;;;;;;;;;;;;;5072353;28;19920;-81
2023/07/06 08:33:53;;;;;;;;;;;;;;;;;;5088766;28;20020;-81
2023/07/06 08:36:20;;;;;;;;;;;;;;;;;;5089148;28;19920;-81
2023/07/06 08:38:46;;;;;;;;;;;;;;;;;;5089600;28;19924;-81
2023/07/06 08:41:12;;;;;;;;;;;;;;;;;;5071670;28;20373;-81
2023/07/06 08:43:38;;;;;;;;;;;;;;;;;;5072292;28;19969;-80
2023/07/06 08:46:04;;;;;;;;;;;;;;;;;;5089546;28;19932;-82
2023/07/06 08:48:31;;;;;;;;;;;;;;;;;;5087820;28;19924;-79
2023/07/06 08:50:57;;;;;;;;;;;;;;;;;;5078858;28;19926;-79
2023/07/06 08:53:27;;;;;;;;;;;;;;;;;;5075255;28;20326;-77
2023/07/06 08:55:53;;;;;;;;;;;;;;;;;;5083930;28;19970;-77
2023/07/06 08:58:19;;;;;;;;;;;;;;;;;;5066041;28;19924;-77
2023/07/06 09:00:46;;;;;;;;;;;;;;;;;;5076134;28;19924;-77
2023/07/06 09:03:12;;;;;;;;;;;;;;;;;;5092383;28;19924;-76
2023/07/06 09:05:38;;;;;;;;;;;;;;;;;;5075508;28;19926;-77
2023/07/06 09:08:04;;;;;;;;;;;;;;;;;;5093242;28;20018;-77
2023/07/06 09:10:30;;;;;;;;;;;;;;;;;;5092291;28;20009;-77
2023/07/06 09:12:57;;;;;;;;;;;;;;;;;;5092979;28;19930;-75
2023/07/06 09:15:23;;;;;;;;;;;;;;;;;;5092758;28;19957;-76
2023/07/06 09:17:50;;;;;;;;;;;;;;;;;;5076470;28;19968;-70
2023/07/06 09:20:16;;;;;;;;;;;;;;;;;;5089002;28;19921;-70
2023/07/06 09:22:42;;;;;;;;;;;;;;;;;;5076199;28;19924;-73
2023/07/06 09:25:10;;;;;;;;;;;;;;;;;;5082692;28;19924;-72
2023/07/06 09:27:37;;;;;;;;;;;;;;;;;;5093063;28;19966;-82
2023/07/06 09:30:03;;;;;;;;;;;;;;;;;;5080293;28;20009;-78
2023/07/06 09:32:33;;;;;;;;;;;;;;;;;;5083895;28;19920;-78
2023/07/06 09:34:59;;;;;;;;;;;;;;;;;;5060521;28;19973;-78
2023/07/06 09:37:26;;;;;;;;;;;;;;;;;;5092139;28;19920;-78
2023/07/06 09:39:52;;;;;;;;;;;;;;;;;;5070655;28;19957;-78
2023/07/06 09:42:18;;;;;;;;;;;;;;;;;;5076487;28;20031;-79
2023/07/06 09:44:44;;;;;;;;;;;;;;;;;;5080959;28;20424;-78
2023/07/06 09:47:11;;;;;;;;;;;;;;;;;;5072140;28;19926;-77
2023/07/06 09:49:37;;;;;;;;;;;;;;;;;;5077848;28;19974;-81
2023/07/06 09:52:05;;;;;;;;;;;;;;;;;;5092294;28;19927;-77
2023/07/06 09:54:31;;;;;;;;;;;;;;;;;;5091351;28;19920;-76
2023/07/06 09:56:57;;;;;;;;;;;;;;;;;;5092210;28;19974;-78
2023/07/06 09:59:23;;;;;;;;;;;;;;;;;;5083082;28;19927;-78
2023/07/06 10:01:49;;;;;;;;;;;;;;;;;;5069057;28;19946;-78
2023/07/06 10:04:15;;;;;;;;;;;;;;;;;;5077577;28;19963;-82
2023/07/06 10:06:43;;;;;;;;;;;;;;;;;;5083244;28;20396;-81
2023/07/06 10:09:09;;;;;;;;;;;;;;;;;;5085001;28;20314;-79
2023/07/06 10:11:36;;;;;;;;;;;;;;;;;;5050888;28;19924;-79
2023/07/06 10:14:01;;;;;;;;;;;;;;;;;;5065134;28;19923;-79
2023/07/06 10:16:28;;;;;;;;;;;;;;;;;;5071774;28;19935;-79
2023/07/06 10:18:54;;;;;;;;;;;;;;;;;;5070443;28;19920;-79
2023/07/06 10:21:20;;;;;;;;;;;;;;;;;;5076278;28;20272;-78
2023/07/06 10:23:46;;;;;;;;;;;;;;;;;;5091074;28;19923;-79
2023/07/06 10:26:12;;;;;;;;;;;;;;;;;;5073586;28;19954;-79
2023/07/06 10:28:38;;;;;;;;;;;;;;;;;;5063785;28;19928;-78
2023/07/06 10:31:06;;;;;;;;;;;;;;;;;;5088801;28;19949;-78
2023/07/06 10:33:32;;;;;;;;;;;;;;;;;;5079222;28;19920;-78
2023/07/06 10:35:58;;;;;;;;;;;;;;;;;;5089174;28;19926;-79
2023/07/06 10:38:24;;;;;;;;;;;;;;;;;;5074497;28;20283;-78
2023/07/06 10:40:50;;;;;;;;;;;;;;;;;;5070819;28;19920;-79
2023/07/06 10:43:16;;;;;;;;;;;;;;;;;;5083262;28;19920;-79
2023/07/06 10:45:42;;;;;;;;;;;;;;;;;;5083347;28;20361;-78
2023/07/06 10:48:08;;;;;;;;;;;;;;;;;;5067502;28;19920;-79
2023/07/06 10:50:34;;;;;;;;;;;;;;;;;;5090837;28;19931;-78
2023/07/06 10:53:03;;;;;;;;;;;;;;;;;;5090975;28;19920;-79
2023/07/06 10:55:30;;;;;;;;;;;;;;;;;;5073194;28;20304;-81
2023/07/06 10:57:57;;;;;;;;;;;;;;;;;;5073667;28;19931;-79
2023/07/06 11:00:23;;;;;;;;;;;;;;;;;;5074542;28;19923;-79
2023/07/06 11:02:50;;;;;;;;;;;;;;;;;;5083033;28;20487;-77
2023/07/06 11:05:16;;;;;;;;;;;;;;;;;;5070832;28;19920;-79
2023/07/06 11:07:42;;;;;;;;;;;;;;;;;;5053431;28;20375;-80
2023/07/06 11:10:09;;;;;;;;;;;;;;;;;;5062572;28;19942;-79
2023/07/06 11:12:35;;;;;;;;;;;;;;;;;;5073128;28;19932;-80
2023/07/06 11:15:01;;;;;;;;;;;;;;;;;;5073352;28;19992;-78
2023/07/06 11:17:28;;;;;;;;;;;;;;;;;;5059879;28;19924;-83
2023/07/06 11:19:54;;;;;;;;;;;;;;;;;;5068563;28;19931;-82
2023/07/06 11:22:20;;;;;;;;;;;;;;;;;;5089630;28;19924;-83
2023/07/06 11:24:48;;;;;;;;;;;;;;;;;;5087894;28;19924;-83
2023/07/06 11:27:14;;;;;;;;;;;;;;;;;;5086502;28;19960;-83
2023/07/06 11:29:40;;;;;;;;;;;;;;;;;;5061024;28;19924;-83
2023/07/06 11:32:06;;;;;;;;;;;;;;;;;;5053492;28;19924;-83
2023/07/06 11:34:34;;;;;;;;;;;;;;;;;;5080517;28;19920;-81
2023/07/06 11:37:00;;;;;;;;;;;;;;;;;;5089929;28;19920;-80
2023/07/06 11:39:26;;;;;;;;;;;;;;;;;;5090071;28;20414;-84
2023/07/06 11:41:53;;;;;;;;;;;;;;;;;;5089533;28;19927;-83
2023/07/06 11:44:19;;;;;;;;;;;;;;;;;;5089816;28;19926;-84
2023/07/06 11:46:45;;;;;;;;;;;;;;;;;;5088810;28;20046;-84
2023/07/06 11:49:11;;;;;;;;;;;;;;;;;;5089333;28;20283;-84
2023/07/06 11:51:38;;;;;;;;;;;;;;;;;;5084089;28;20014;-83
2023/07/06 11:54:05;;;;;;;;;;;;;;;;;;5062529;28;19924;-83
2023/07/06 11:57:03;;;;;;;;;;;;;;;;;;5056678;28;19935;-84
2023/07/06 11:59:40;;;;;;;;;;;;;;;;;;5083357;28;19923;-83
2023/07/06 12:02:07;;;;;;;;;;;;;;;;;;5079476;28;20268;-84
2023/07/06 12:04:34;;;;;;;;;;;;;;;;;;5089435;28;19930;-84
2023/07/06 12:07:00;;;;;;;;;;;;;;;;;;5062838;28;19920;-84
2023/07/06 12:09:26;;;;;;;;;;;;;;;;;;5085836;28;20030;-84
2023/07/06 12:11:52;;;;;;;;;;;;;;;;;;5073006;28;20026;-84
2023/07/06 12:14:18;;;;;;;;;;;;;;;;;;5070295;28;19920;-84
2023/07/06 12:16:44;;;;;;;;;;;;;;;;;;5062294;28;20023;-84
2023/07/06 12:19:10;;;;;;;;;;;;;;;;;;5088739;28;20015;-83
2023/07/06 12:21:38;;;;;;;;;;;;;;;;;;5080525;28;19946;-83
2023/07/06 12:24:04;;;;;;;;;;;;;;;;;;5086130;28;19923;-83
2023/07/06 12:26:30;;;;;;;;;;;;;;;;;;5073014;28;20033;-84
2023/07/06 12:28:56;;;;;;;;;;;;;;;;;;5072702;28;19924;-84
2023/07/06 12:31:23;;;;;;;;;;;;;;;;;;5092943;28;19928;-84
2023/07/06 12:33:49;;;;;;;;;;;;;;;;;;5092012;28;19978;-83
2023/07/06 12:36:15;;;;;;;;;;;;;;;;;;5069960;28;19968;-82
2023/07/06 12:38:41;;;;;;;;;;;;;;;;;;5058403;28;19928;-81
2023/07/06 12:41:09;;;;;;;;;;;;;;;;;;5081452;28;19974;-85
2023/07/06 12:43:35;;;;;;;;;;;;;;;;;;5086288;28;20423;-85
2023/07/06 12:46:03;;;;;;;;;;;;;;;;;;5056684;28;19920;-85
2023/07/06 12:48:29;;;;;;;;;;;;;;;;;;5084157;28;19926;-84
2023/07/06 12:50:55;;;;;;;;;;;;;;;;;;5075458;28;20019;-84
2023/07/06 12:53:22;;;;;;;;;;;;;;;;;;5076455;28;20012;-84
2023/07/06 12:55:49;;;;;;;;;;;;;;;;;;5092082;28;20292;-84
2023/07/06 12:58:15;;;;;;;;;;;;;;;;;;5069964;28;19973;-84
2023/07/06 13:00:44;;;;;;;;;;;;;;;;;;5061813;28;19920;-83
2023/07/06 13:03:12;;;;;;;;;;;;;;;;;;5074335;28;20428;-84
2023/07/06 13:05:38;;;;;;;;;;;;;;;;;;5080705;28;19931;-83
2023/07/06 13:08:10;;;;;;;;;;;;;;;;;;5085096;28;19924;-83
2023/07/06 13:10:39;;;;;;;;;;;;;;;;;;5085827;28;19924;-84
2023/07/06 13:13:04;;;;;;;;;;;;;;;;;;5075019;28;20017;-83
2023/07/06 13:15:30;;;;;;;;;;;;;;;;;;5075629;28;19987;-83
2023/07/06 13:17:59;;;;;;;;;;;;;;;;;;5074449;28;19935;-84
2023/07/06 13:20:24;;;;;;;;;;;;;;;;;;5093093;28;19924;-83
2023/07/06 13:22:50;;;;;;;;;;;;;;;;;;5067307;28;20375;-83
2023/07/06 13:25:17;;;;;;;;;;;;;;;;;;5085613;28;20423;-84
2023/07/06 13:27:45;;;;;;;;;;;;;;;;;;5062773;28;19920;-82
2023/07/06 13:30:11;;;;;;;;;;;;;;;;;;5062354;28;20015;-84
2023/07/06 13:32:37;;;;;;;;;;;;;;;;;;5067595;28;19927;-83
2023/07/06 13:35:03;;;;;;;;;;;;;;;;;;5072158;28;19999;-84
2023/07/06 13:37:30;;;;;;;;;;;;;;;;;;5085608;28;19921;-84
2023/07/06 13:39:59;;;;;;;;;;;;;;;;;;5053663;28;19920;-84
2023/07/06 13:42:25;;;;;;;;;;;;;;;;;;5088874;28;19932;-84
2023/07/06 13:44:51;;;;;;;;;;;;;;;;;;5069485;28;19955;-84
2023/07/06 13:47:18;;;;;;;;;;;;;;;;;;5056583;28;19921;-83
2023/07/06 13:49:44;;;;;;;;;;;;;;;;;;5067830;28;19927;-83
2023/07/06 13:52:11;;;;;;;;;;;;;;;;;;5062709;28;20270;-83
2023/07/06 13:54:37;;;;;;;;;;;;;;;;;;5073091;28;19920;-82
2023/07/06 13:57:04;;;;;;;;;;;;;;;;;;5079783;28;20030;-82
2023/07/06 13:59:31;;;;;;;;;;;;;;;;;;5091725;28;19920;-82
2023/07/06 14:02:02;;;;;;;;;;;;;;;;;;5091901;28;20673;-81
2023/07/06 14:04:28;;;;;;;;;;;;;;;;;;5074094;28;19956;-81
2023/07/06 14:06:55;;;;;;;;;;;;;;;;;;5071841;28;20328;-81
2023/07/06 14:09:21;;;;;;;;;;;;;;;;;;5086294;28;19974;-81
2023/07/06 14:11:47;;;;;;;;;;;;;;;;;;5091523;28;19967;-82
2023/07/06 14:14:13;;;;;;;;;;;;;;;;;;5059213;28;20013;-83
2023/07/06 14:16:39;;;;;;;;;;;;;;;;;;5091340;28;20377;-83
2023/07/06 14:19:06;;;;;;;;;;;;;;;;;;5072046;28;19928;-71
2023/07/06 14:21:35;;;;;;;;;;;;;;;;;;5091588;28;20299;-71
2023/07/06 14:24:01;;;;;;;;;;;;;;;;;;5090756;28;19920;-73
2023/07/06 14:26:27;;;;;;;;;;;;;;;;;;5091474;28;19972;-74
2023/07/06 14:28:54;;;;;;;;;;;;;;;;;;5075661;28;19920;-79
2023/07/06 14:31:20;;;;;;;;;;;;;;;;;;5087172;28;19924;-75
2023/07/06 14:33:46;;;;;;;;;;;;;;;;;;5074552;28;19924;-76
2023/07/06 14:36:12;;;;;;;;;;;;;;;;;;5090876;28;19923;-74
2023/07/06 14:38:38;;;;;;;;;;;;;;;;;;5077415;28;20314;-73
2023/07/06 14:41:06;;;;;;;;;;;;;;;;;;5080459;28;19919;-72
2023/07/06 14:43:32;;;;;;;;;;;;;;;;;;5090016;28;19926;-73
2023/07/06 14:45:58;;;;;;;;;;;;;;;;;;5090505;28;19920;-74
2023/07/06 14:48:24;;;;;;;;;;;;;;;;;;5078233;28;19920;-73
2023/07/06 14:50:50;;;;;;;;;;;;;;;;;;5088546;28;20399;-72
2023/07/06 14:53:15;;;;;;;;;;;;;;;;;;5086067;28;20016;-73
2023/07/06 14:55:41;;;;;;;;;;;;;;;;;;5090869;28;19920;-73
2023/07/06 14:58:08;;;;;;;;;;;;;;;;;;5084210;28;19924;-72
2023/07/06 15:00:34;;;;;;;;;;;;;;;;;;5080468;28;19927;-72
2023/07/06 15:03:03;;;;;;;;;;;;;;;;;;5073197;28;19946;-72
2023/07/06 15:05:29;;;;;;;;;;;;;;;;;;5089545;28;20307;-73
2023/07/06 15:07:55;;;;;;;;;;;;;;;;;;5090295;28;19943;-74
2023/07/06 15:10:21;;;;;;;;;;;;;;;;;;5090746;28;19920;-79
2023/07/06 15:12:47;;;;;;;;;;;;;;;;;;5082255;28;19920;-78
2023/07/06 15:15:15;;;;;;;;;;;;;;;;;;5071679;28;19971;-79
2023/07/06 15:17:41;;;;;;;;;;;;;;;;;;5049803;28;1106859;-78
2023/07/06 15:20:07;;;;;;;;;;;;;;;;;;5089395;28;19931;-76
2023/07/06 15:22:33;;;;;;;;;;;;;;;;;;5078982;28;20003;-80
2023/07/06 15:24:58;;;;;;;;;;;;;;;;;;5072476;28;19923;-83
2023/07/06 15:27:24;;;;;;;;;;;;;;;;;;5090263;28;19924;-81
2023/07/06 15:29:50;;;;;;;;;;;;;;;;;;5089970;28;20292;-77
2023/07/06 15:32:16;;;;;;;;;;;;;;;;;;5070121;28;20058;-78
2023/07/06 15:34:42;;;;;;;;;;;;;;;;;;5069637;28;19931;-81
2023/07/06 15:37:08;;;;;;;;;;;;;;;;;;5078445;28;19924;-73
2023/07/06 15:39:35;;;;;;;;;;;;;;;;;;5089933;28;20064;-74
2023/07/06 15:42:01;;;;;;;;;;;;;;;;;;5089422;28;19927;-77
2023/07/06 15:44:27;;;;;;;;;;;;;;;;;;5090764;28;19920;-75
2023/07/06 15:46:53;;;;;;;;;;;;;;;;;;5091460;28;19920;-78
2023/07/06 15:49:19;;;;;;;;;;;;;;;;;;5089413;28;19923;-77
2023/07/06 15:51:45;;;;;;;;;;;;;;;;;;5077495;28;19931;-76
2023/07/06 15:54:11;;;;;;;;;;;;;;;;;;5069000;28;19942;-71
2023/07/06 15:56:37;;;;;;;;;;;;;;;;;;5075001;28;19924;-77
2023/07/06 15:59:03;;;;;;;;;;;;;;;;;;5088884;28;19920;-71
2023/07/06 16:01:29;;;;;;;;;;;;;;;;;;5076872;28;19989;-71
2023/07/06 16:03:55;;;;;;;;;;;;;;;;;;5089958;28;19970;-70
2023/07/06 16:06:21;;;;;;;;;;;;;;;;;;5087785;28;19970;-71
2023/07/06 16:08:47;;;;;;;;;;;;;;;;;;5090888;28;19973;-71
2023/07/06 16:11:12;;;;;;;;;;;;;;;;;;5088683;28;19928;-71
2023/07/06 16:13:38;;;;;;;;;;;;;;;;;;5072238;28;19982;-71
2023/07/06 16:16:04;;;;;;;;;;;;;;;;;;5088198;28;19920;-71
2023/07/06 16:18:30;;;;;;;;;;;;;;;;;;5086524;28;19920;-72
2023/07/06 16:21:01;;;;;;;;;;;;;;;;;;5089310;28;19920;-71
2023/07/06 16:23:27;;;;;;;;;;;;;;;;;;5087650;28;19920;-72
2023/07/06 16:25:53;;;;;;;;;;;;;;;;;;5076259;28;19921;-72
2023/07/06 16:28:18;;;;;;;;;;;;;;;;;;5088141;28;19927;-72
2023/07/06 16:30:44;;;;;;;;;;;;;;;;;;5090389;28;19920;-71
2023/07/06 16:33:10;;;;;;;;;;;;;;;;;;5089580;28;20125;-72
2023/07/06 16:35:36;;;;;;;;;;;;;;;;;;5061893;28;19921;-72
2023/07/06 16:38:02;;;;;;;;;;;;;;;;;;5085996;28;19927;-74
2023/07/06 16:40:28;;;;;;;;;;;;;;;;;;5078266;28;20010;-72
2023/07/06 16:42:57;;;;;;;;;;;;;;;;;;5072051;28;20447;-72